sensor_id;sensor_type;location;lat;lon;timestamp;P1;durP1;ratioP1;P2;durP2;ratioP2
1140;SDS011;559;48.628;8.924;2022-09-09T00:01:20;74.87;;;71.23;;
1140;SDS011;559;48.628;8.924;2022-09-09T00:03:53;71.80;;;68.50;;
1140;SDS011;559;48.628;8.924;2022-09-09T00:06:24;70.87;;;67.87;;
1140;SDS011;559;48.628;8.924;2022-09-09T00:08:58;68.43;;;65.33;;
1140;SDS011;559;48.628;8.924;2022-09-09T00:11:29;67.03;;;64.43;;
1140;SDS011;559;48.628;8.924;2022-09-09T00:14:03;65.63;;;63.03;;
1140;SDS011;559;48.628;8.924;2022-09-09T00:16:34;66.50;;;63.90;;
1140;SDS011;559;48.628;8.924;2022-09-09T00:19:04;64.90;;;62.40;;
1140;SDS011;559;48.628;8.924;2022-09-09T00:21:34;61.70;;;59.40;;
1140;SDS011;559;48.628;8.924;2022-09-09T00:24:08;64.50;;;62.10;;
1140;SDS011;559;48.628;8.924;2022-09-09T00:26:35;61.60;;;59.10;;
1140;SDS011;559;48.628;8.924;2022-09-09T00:29:09;61.90;;;59.63;;
1140;SDS011;559;48.628;8.924;2022-09-09T00:31:39;62.60;;;60.10;;
1140;SDS011;559;48.628;8.924;2022-09-09T00:34:09;62.83;;;60.43;;
1140;SDS011;559;48.628;8.924;2022-09-09T00:36:40;61.33;;;59.00;;
1140;SDS011;559;48.628;8.924;2022-09-09T00:39:09;61.80;;;59.10;;
1140;SDS011;559;48.628;8.924;2022-09-09T00:41:45;62.73;;;60.33;;
1140;SDS011;559;48.628;8.924;2022-09-09T00:44:18;61.10;;;58.60;;
1140;SDS011;559;48.628;8.924;2022-09-09T00:46:56;65.07;;;62.30;;
1140;SDS011;559;48.628;8.924;2022-09-09T00:49:31;60.27;;;57.97;;
1140;SDS011;559;48.628;8.924;2022-09-09T00:52:08;59.70;;;57.40;;
1140;SDS011;559;48.628;8.924;2022-09-09T00:54:45;58.47;;;56.27;;
1140;SDS011;559;48.628;8.924;2022-09-09T00:57:18;59.03;;;56.63;;
1140;SDS011;559;48.628;8.924;2022-09-09T00:59:50;60.70;;;58.30;;
1140;SDS011;559;48.628;8.924;2022-09-09T01:02:28;58.30;;;56.00;;
1140;SDS011;559;48.628;8.924;2022-09-09T01:04:58;59.00;;;56.80;;
1140;SDS011;559;48.628;8.924;2022-09-09T01:07:32;57.83;;;55.63;;
1140;SDS011;559;48.628;8.924;2022-09-09T01:09:59;58.27;;;55.97;;
1140;SDS011;559;48.628;8.924;2022-09-09T01:12:33;61.23;;;58.93;;
1140;SDS011;559;48.628;8.924;2022-09-09T01:15:03;66.33;;;63.60;;
1140;SDS011;559;48.628;8.924;2022-09-09T01:17:36;77.07;;;73.47;;
1140;SDS011;559;48.628;8.924;2022-09-09T01:20:12;80.67;;;76.77;;
1140;SDS011;559;48.628;8.924;2022-09-09T01:22:44;83.70;;;79.50;;
1140;SDS011;559;48.628;8.924;2022-09-09T01:25:22;86.27;;;82.03;;
1140;SDS011;559;48.628;8.924;2022-09-09T01:27:55;81.40;;;77.40;;
1140;SDS011;559;48.628;8.924;2022-09-09T01:30:24;84.67;;;80.67;;
1140;SDS011;559;48.628;8.924;2022-09-09T01:32:52;84.47;;;80.47;;
1140;SDS011;559;48.628;8.924;2022-09-09T01:35:25;77.63;;;73.73;;
1140;SDS011;559;48.628;8.924;2022-09-09T01:37:58;78.20;;;74.50;;
1140;SDS011;559;48.628;8.924;2022-09-09T01:40:25;80.47;;;76.47;;
1140;SDS011;559;48.628;8.924;2022-09-09T01:42:52;85.67;;;81.47;;
1140;SDS011;559;48.628;8.924;2022-09-09T01:45:20;84.70;;;80.20;;
1140;SDS011;559;48.628;8.924;2022-09-09T01:47:47;83.67;;;79.37;;
1140;SDS011;559;48.628;8.924;2022-09-09T01:50:15;86.07;;;81.87;;
1140;SDS011;559;48.628;8.924;2022-09-09T01:52:42;88.70;;;84.30;;
1140;SDS011;559;48.628;8.924;2022-09-09T01:55:10;82.47;;;78.27;;
1140;SDS011;559;48.628;8.924;2022-09-09T01:57:38;82.70;;;78.50;;
1140;SDS011;559;48.628;8.924;2022-09-09T02:00:09;81.33;;;77.13;;
1140;SDS011;559;48.628;8.924;2022-09-09T02:02:39;81.90;;;76.90;;
1140;SDS011;559;48.628;8.924;2022-09-09T02:05:14;79.00;;;74.63;;
1140;SDS011;559;48.628;8.924;2022-09-09T02:07:46;79.00;;;74.90;;
1140;SDS011;559;48.628;8.924;2022-09-09T02:10:21;80.43;;;75.83;;
1140;SDS011;559;48.628;8.924;2022-09-09T02:12:49;77.90;;;74.00;;
1140;SDS011;559;48.628;8.924;2022-09-09T02:15:20;80.97;;;76.87;;
1140;SDS011;559;48.628;8.924;2022-09-09T02:17:51;77.43;;;73.20;;
1140;SDS011;559;48.628;8.924;2022-09-09T02:20:18;76.80;;;73.03;;
1140;SDS011;559;48.628;8.924;2022-09-09T02:22:46;78.73;;;74.80;;
1140;SDS011;559;48.628;8.924;2022-09-09T02:25:17;78.73;;;74.70;;
1140;SDS011;559;48.628;8.924;2022-09-09T02:27:45;85.80;;;81.30;;
1140;SDS011;559;48.628;8.924;2022-09-09T02:30:13;79.13;;;75.03;;
1140;SDS011;559;48.628;8.924;2022-09-09T02:32:41;77.80;;;73.80;;
1140;SDS011;559;48.628;8.924;2022-09-09T02:35:11;76.47;;;72.27;;
1140;SDS011;559;48.628;8.924;2022-09-09T02:37:39;74.33;;;70.27;;
1140;SDS011;559;48.628;8.924;2022-09-09T02:40:07;76.80;;;72.30;;
1140;SDS011;559;48.628;8.924;2022-09-09T02:42:38;79.40;;;74.90;;
1140;SDS011;559;48.628;8.924;2022-09-09T02:45:05;84.70;;;79.90;;
1140;SDS011;559;48.628;8.924;2022-09-09T02:47:34;77.40;;;73.10;;
1140;SDS011;559;48.628;8.924;2022-09-09T02:50:10;78.27;;;73.97;;
1140;SDS011;559;48.628;8.924;2022-09-09T02:52:42;79.27;;;74.90;;
1140;SDS011;559;48.628;8.924;2022-09-09T02:55:16;77.07;;;72.67;;
1140;SDS011;559;48.628;8.924;2022-09-09T02:57:46;79.60;;;74.90;;
1140;SDS011;559;48.628;8.924;2022-09-09T03:00:13;80.20;;;75.80;;
1140;SDS011;559;48.628;8.924;2022-09-09T03:02:40;86.17;;;81.37;;
1140;SDS011;559;48.628;8.924;2022-09-09T03:05:07;88.80;;;83.70;;
1140;SDS011;559;48.628;8.924;2022-09-09T03:07:35;87.27;;;82.33;;
1140;SDS011;559;48.628;8.924;2022-09-09T03:10:02;88.60;;;83.60;;
1140;SDS011;559;48.628;8.924;2022-09-09T03:12:29;89.40;;;84.30;;
1140;SDS011;559;48.628;8.924;2022-09-09T03:14:56;86.47;;;81.47;;
1140;SDS011;559;48.628;8.924;2022-09-09T03:17:22;92.30;;;86.80;;
1140;SDS011;559;48.628;8.924;2022-09-09T03:19:49;94.27;;;88.97;;
1140;SDS011;559;48.628;8.924;2022-09-09T03:22:17;91.50;;;86.10;;
1140;SDS011;559;48.628;8.924;2022-09-09T03:24:45;94.05;;;88.55;;
1140;SDS011;559;48.628;8.924;2022-09-09T03:27:12;88.17;;;82.97;;
1140;SDS011;559;48.628;8.924;2022-09-09T03:29:40;88.40;;;83.10;;
1140;SDS011;559;48.628;8.924;2022-09-09T03:32:06;94.17;;;88.83;;
1140;SDS011;559;48.628;8.924;2022-09-09T03:34:35;92.10;;;86.40;;
1140;SDS011;559;48.628;8.924;2022-09-09T03:37:05;90.50;;;85.03;;
1140;SDS011;559;48.628;8.924;2022-09-09T03:39:31;96.50;;;90.75;;
1140;SDS011;559;48.628;8.924;2022-09-09T03:41:59;105.90;;;100.10;;
1140;SDS011;559;48.628;8.924;2022-09-09T03:44:29;104.03;;;98.03;;
1140;SDS011;559;48.628;8.924;2022-09-09T03:46:55;99.00;;;93.20;;
1140;SDS011;559;48.628;8.924;2022-09-09T03:49:22;94.68;;;88.97;;
1140;SDS011;559;48.628;8.924;2022-09-09T03:51:49;94.25;;;88.55;;
1140;SDS011;559;48.628;8.924;2022-09-09T03:54:15;102.07;;;95.78;;
1140;SDS011;559;48.628;8.924;2022-09-09T03:56:42;94.75;;;89.18;;
1140;SDS011;559;48.628;8.924;2022-09-09T03:59:10;93.32;;;87.65;;
1140;SDS011;559;48.628;8.924;2022-09-09T04:01:36;94.25;;;88.05;;
1140;SDS011;559;48.628;8.924;2022-09-09T04:04:03;95.53;;;89.63;;
1140;SDS011;559;48.628;8.924;2022-09-09T04:06:29;91.97;;;86.28;;
1140;SDS011;559;48.628;8.924;2022-09-09T04:08:56;94.63;;;88.75;;
1140;SDS011;559;48.628;8.924;2022-09-09T04:11:22;96.03;;;90.03;;
1140;SDS011;559;48.628;8.924;2022-09-09T04:13:49;94.45;;;88.35;;
1140;SDS011;559;48.628;8.924;2022-09-09T04:16:17;107.13;;;100.93;;
1140;SDS011;559;48.628;8.924;2022-09-09T04:18:43;103.60;;;97.25;;
1140;SDS011;559;48.628;8.924;2022-09-09T04:21:10;97.57;;;91.63;;
1140;SDS011;559;48.628;8.924;2022-09-09T04:23:38;102.45;;;96.10;;
1140;SDS011;559;48.628;8.924;2022-09-09T04:26:05;102.28;;;95.88;;
1140;SDS011;559;48.628;8.924;2022-09-09T04:28:32;106.60;;;99.70;;
1140;SDS011;559;48.628;8.924;2022-09-09T04:31:03;111.15;;;104.15;;
1140;SDS011;559;48.628;8.924;2022-09-09T04:33:31;111.10;;;104.25;;
1140;SDS011;559;48.628;8.924;2022-09-09T04:35:58;115.30;;;108.15;;
1140;SDS011;559;48.628;8.924;2022-09-09T04:38:25;109.63;;;102.82;;
1140;SDS011;559;48.628;8.924;2022-09-09T04:40:52;110.10;;;103.05;;
1140;SDS011;559;48.628;8.924;2022-09-09T04:43:19;109.65;;;102.65;;
1140;SDS011;559;48.628;8.924;2022-09-09T04:45:46;119.90;;;112.90;;
1140;SDS011;559;48.628;8.924;2022-09-09T04:48:14;120.78;;;113.65;;
1140;SDS011;559;48.628;8.924;2022-09-09T04:50:41;115.47;;;108.38;;
1140;SDS011;559;48.628;8.924;2022-09-09T04:53:08;114.75;;;107.55;;
1140;SDS011;559;48.628;8.924;2022-09-09T04:55:35;110.20;;;102.82;;
1140;SDS011;559;48.628;8.924;2022-09-09T04:58:02;113.18;;;106.18;;
1140;SDS011;559;48.628;8.924;2022-09-09T05:00:30;115.55;;;108.43;;
1140;SDS011;559;48.628;8.924;2022-09-09T05:02:56;109.47;;;102.20;;
1140;SDS011;559;48.628;8.924;2022-09-09T05:05:23;115.68;;;108.68;;
1140;SDS011;559;48.628;8.924;2022-09-09T05:07:51;115.03;;;108.03;;
1140;SDS011;559;48.628;8.924;2022-09-09T05:10:18;109.07;;;102.38;;
1140;SDS011;559;48.628;8.924;2022-09-09T05:12:51;111.35;;;104.68;;
1140;SDS011;559;48.628;8.924;2022-09-09T05:15:18;113.93;;;107.13;;
1140;SDS011;559;48.628;8.924;2022-09-09T05:17:46;102.88;;;96.57;;
1140;SDS011;559;48.628;8.924;2022-09-09T05:20:12;107.65;;;101.15;;
1140;SDS011;559;48.628;8.924;2022-09-09T05:22:39;104.27;;;97.77;;
1140;SDS011;559;48.628;8.924;2022-09-09T05:25:08;101.88;;;95.30;;
1140;SDS011;559;48.628;8.924;2022-09-09T05:27:34;96.97;;;90.97;;
1140;SDS011;559;48.628;8.924;2022-09-09T05:30:01;92.90;;;87.00;;
1140;SDS011;559;48.628;8.924;2022-09-09T05:32:29;89.65;;;84.07;;
1140;SDS011;559;48.628;8.924;2022-09-09T05:34:57;83.40;;;77.97;;
1140;SDS011;559;48.628;8.924;2022-09-09T05:37:24;85.77;;;80.57;;
1140;SDS011;559;48.628;8.924;2022-09-09T05:39:50;81.47;;;76.33;;
1140;SDS011;559;48.628;8.924;2022-09-09T05:42:19;85.17;;;79.97;;
1140;SDS011;559;48.628;8.924;2022-09-09T05:44:46;80.80;;;75.90;;
1140;SDS011;559;48.628;8.924;2022-09-09T05:47:13;82.63;;;77.83;;
1140;SDS011;559;48.628;8.924;2022-09-09T05:49:40;80.27;;;75.37;;
1140;SDS011;559;48.628;8.924;2022-09-09T05:52:06;78.70;;;73.93;;
1140;SDS011;559;48.628;8.924;2022-09-09T05:54:34;80.70;;;75.80;;
1140;SDS011;559;48.628;8.924;2022-09-09T05:57:02;83.93;;;78.82;;
1140;SDS011;559;48.628;8.924;2022-09-09T05:59:30;81.30;;;76.50;;
1140;SDS011;559;48.628;8.924;2022-09-09T06:01:57;78.93;;;74.23;;
1140;SDS011;559;48.628;8.924;2022-09-09T06:04:24;81.87;;;76.80;;
1140;SDS011;559;48.628;8.924;2022-09-09T06:06:50;82.93;;;77.93;;
1140;SDS011;559;48.628;8.924;2022-09-09T06:09:17;80.17;;;75.40;;
1140;SDS011;559;48.628;8.924;2022-09-09T06:11:43;80.33;;;75.63;;
1140;SDS011;559;48.628;8.924;2022-09-09T06:14:10;79.77;;;74.97;;
1140;SDS011;559;48.628;8.924;2022-09-09T06:16:38;76.07;;;71.40;;
1140;SDS011;559;48.628;8.924;2022-09-09T06:19:07;78.43;;;73.53;;
1140;SDS011;559;48.628;8.924;2022-09-09T06:21:34;79.13;;;74.23;;
1140;SDS011;559;48.628;8.924;2022-09-09T06:24:02;75.97;;;71.37;;
1140;SDS011;559;48.628;8.924;2022-09-09T06:26:29;75.57;;;70.97;;
1140;SDS011;559;48.628;8.924;2022-09-09T06:28:56;76.67;;;71.67;;
1140;SDS011;559;48.628;8.924;2022-09-09T06:31:24;78.37;;;73.43;;
1140;SDS011;559;48.628;8.924;2022-09-09T06:33:53;75.07;;;70.47;;
1140;SDS011;559;48.628;8.924;2022-09-09T06:36:21;72.53;;;68.23;;
1140;SDS011;559;48.628;8.924;2022-09-09T06:38:48;74.73;;;70.13;;
1140;SDS011;559;48.628;8.924;2022-09-09T06:41:15;73.17;;;68.67;;
1140;SDS011;559;48.628;8.924;2022-09-09T06:43:43;74.17;;;69.77;;
1140;SDS011;559;48.628;8.924;2022-09-09T06:46:10;71.97;;;67.67;;
1140;SDS011;559;48.628;8.924;2022-09-09T06:48:38;72.03;;;67.70;;
1140;SDS011;559;48.628;8.924;2022-09-09T06:51:08;71.87;;;67.20;;
1140;SDS011;559;48.628;8.924;2022-09-09T06:53:36;70.10;;;65.70;;
1140;SDS011;559;48.628;8.924;2022-09-09T06:56:15;72.27;;;67.83;;
1140;SDS011;559;48.628;8.924;2022-09-09T06:58:44;73.97;;;69.63;;
1140;SDS011;559;48.628;8.924;2022-09-09T07:01:11;72.50;;;68.10;;
1140;SDS011;559;48.628;8.924;2022-09-09T07:03:39;70.73;;;66.37;;
1140;SDS011;559;48.628;8.924;2022-09-09T07:06:08;70.60;;;66.30;;
1140;SDS011;559;48.628;8.924;2022-09-09T07:08:39;68.90;;;64.37;;
1140;SDS011;559;48.628;8.924;2022-09-09T07:11:06;66.30;;;62.30;;
1140;SDS011;559;48.628;8.924;2022-09-09T07:13:34;67.53;;;63.63;;
1140;SDS011;559;48.628;8.924;2022-09-09T07:16:03;64.97;;;61.27;;
1140;SDS011;559;48.628;8.924;2022-09-09T07:18:30;68.37;;;64.37;;
1140;SDS011;559;48.628;8.924;2022-09-09T07:20:56;64.70;;;60.90;;
1140;SDS011;559;48.628;8.924;2022-09-09T07:23:24;65.57;;;61.90;;
1140;SDS011;559;48.628;8.924;2022-09-09T07:25:51;64.00;;;60.20;;
1140;SDS011;559;48.628;8.924;2022-09-09T07:28:17;65.90;;;62.00;;
1140;SDS011;559;48.628;8.924;2022-09-09T07:30:52;61.60;;;58.10;;
1140;SDS011;559;48.628;8.924;2022-09-09T07:33:19;61.33;;;58.03;;
1140;SDS011;559;48.628;8.924;2022-09-09T07:35:46;58.27;;;55.07;;
1140;SDS011;559;48.628;8.924;2022-09-09T07:38:12;59.67;;;56.67;;
1140;SDS011;559;48.628;8.924;2022-09-09T07:40:41;59.60;;;56.60;;
1140;SDS011;559;48.628;8.924;2022-09-09T07:43:08;59.83;;;56.87;;
1140;SDS011;559;48.628;8.924;2022-09-09T07:45:35;58.80;;;55.90;;
1140;SDS011;559;48.628;8.924;2022-09-09T07:48:02;58.20;;;55.07;;
1140;SDS011;559;48.628;8.924;2022-09-09T07:50:30;57.47;;;54.20;;
1140;SDS011;559;48.628;8.924;2022-09-09T07:52:57;57.70;;;54.80;;
1140;SDS011;559;48.628;8.924;2022-09-09T07:55:24;58.67;;;55.77;;
1140;SDS011;559;48.628;8.924;2022-09-09T07:57:52;60.13;;;57.20;;
1140;SDS011;559;48.628;8.924;2022-09-09T08:00:19;55.70;;;53.03;;
1140;SDS011;559;48.628;8.924;2022-09-09T08:02:47;58.00;;;54.80;;
1140;SDS011;559;48.628;8.924;2022-09-09T08:05:13;57.57;;;54.67;;
1140;SDS011;559;48.628;8.924;2022-09-09T08:07:41;55.93;;;53.13;;
1140;SDS011;559;48.628;8.924;2022-09-09T08:10:09;54.83;;;52.23;;
1140;SDS011;559;48.628;8.924;2022-09-09T08:12:35;54.83;;;52.00;;
1140;SDS011;559;48.628;8.924;2022-09-09T08:15:04;55.37;;;52.47;;
1140;SDS011;559;48.628;8.924;2022-09-09T08:17:31;56.10;;;53.40;;
1140;SDS011;559;48.628;8.924;2022-09-09T08:19:57;53.73;;;51.37;;
1140;SDS011;559;48.628;8.924;2022-09-09T08:22:30;51.70;;;49.53;;
1140;SDS011;559;48.628;8.924;2022-09-09T08:24:56;53.07;;;50.87;;
1140;SDS011;559;48.628;8.924;2022-09-09T08:27:23;53.23;;;51.03;;
1140;SDS011;559;48.628;8.924;2022-09-09T08:29:50;54.33;;;51.93;;
1140;SDS011;559;48.628;8.924;2022-09-09T08:32:18;57.73;;;55.17;;
1140;SDS011;559;48.628;8.924;2022-09-09T08:34:45;55.27;;;52.63;;
1140;SDS011;559;48.628;8.924;2022-09-09T08:37:11;55.47;;;52.60;;
1140;SDS011;559;48.628;8.924;2022-09-09T08:39:38;51.10;;;48.60;;
1140;SDS011;559;48.628;8.924;2022-09-09T08:42:08;49.53;;;47.27;;
1140;SDS011;559;48.628;8.924;2022-09-09T08:44:47;47.13;;;45.43;;
1140;SDS011;559;48.628;8.924;2022-09-09T08:47:23;49.17;;;47.07;;
1140;SDS011;559;48.628;8.924;2022-09-09T08:49:58;54.97;;;52.40;;
1140;SDS011;559;48.628;8.924;2022-09-09T08:52:30;60.27;;;57.37;;
1140;SDS011;559;48.628;8.924;2022-09-09T08:55:20;60.97;;;57.80;;
1140;SDS011;559;48.628;8.924;2022-09-09T08:57:48;69.33;;;65.40;;
1140;SDS011;559;48.628;8.924;2022-09-09T09:00:16;78.10;;;73.60;;
1140;SDS011;559;48.628;8.924;2022-09-09T09:02:46;90.87;;;85.27;;
1140;SDS011;559;48.628;8.924;2022-09-09T09:05:23;97.80;;;91.70;;
1140;SDS011;559;48.628;8.924;2022-09-09T09:07:59;98.83;;;92.63;;
1140;SDS011;559;48.628;8.924;2022-09-09T09:10:37;117.60;;;110.60;;
1140;SDS011;559;48.628;8.924;2022-09-09T09:13:20;104.90;;;98.60;;
1140;SDS011;559;48.628;8.924;2022-09-09T09:15:52;98.80;;;93.10;;
1140;SDS011;559;48.628;8.924;2022-09-09T09:18:27;93.60;;;88.00;;
1140;SDS011;559;48.628;8.924;2022-09-09T09:20:58;92.90;;;87.40;;
1140;SDS011;559;48.628;8.924;2022-09-09T09:23:33;102.93;;;96.93;;
1140;SDS011;559;48.628;8.924;2022-09-09T09:26:05;107.80;;;101.40;;
1140;SDS011;559;48.628;8.924;2022-09-09T09:28:33;112.53;;;105.97;;
1140;SDS011;559;48.628;8.924;2022-09-09T09:31:03;104.30;;;97.70;;
1140;SDS011;559;48.628;8.924;2022-09-09T09:33:38;107.90;;;101.40;;
1140;SDS011;559;48.628;8.924;2022-09-09T09:36:23;100.63;;;94.20;;
1140;SDS011;559;48.628;8.924;2022-09-09T09:39:08;100.30;;;94.40;;
1140;SDS011;559;48.628;8.924;2022-09-09T09:44:29;103.07;;;96.90;;
1140;SDS011;559;48.628;8.924;2022-09-09T09:47:08;87.37;;;81.77;;
1140;SDS011;559;48.628;8.924;2022-09-09T09:49:39;83.57;;;78.57;;
1140;SDS011;559;48.628;8.924;2022-09-09T09:52:21;86.53;;;81.40;;
1140;SDS011;559;48.628;8.924;2022-09-09T09:54:51;87.90;;;82.53;;
1140;SDS011;559;48.628;8.924;2022-09-09T09:57:18;92.23;;;86.83;;
1140;SDS011;559;48.628;8.924;2022-09-09T09:59:59;91.00;;;85.60;;
1140;SDS011;559;48.628;8.924;2022-09-09T10:02:31;87.07;;;82.07;;
1140;SDS011;559;48.628;8.924;2022-09-09T10:05:13;87.50;;;82.30;;
1140;SDS011;559;48.628;8.924;2022-09-09T10:07:40;86.97;;;81.87;;
1140;SDS011;559;48.628;8.924;2022-09-09T10:10:09;82.00;;;77.30;;
1140;SDS011;559;48.628;8.924;2022-09-09T10:12:48;78.80;;;74.23;;
1140;SDS011;559;48.628;8.924;2022-09-09T10:15:29;79.93;;;75.30;;
1140;SDS011;559;48.628;8.924;2022-09-09T10:18:01;77.00;;;72.70;;
1140;SDS011;559;48.628;8.924;2022-09-09T10:20:40;67.53;;;63.70;;
1140;SDS011;559;48.628;8.924;2022-09-09T10:23:13;67.50;;;63.80;;
1140;SDS011;559;48.628;8.924;2022-09-09T10:25:52;64.90;;;61.50;;
1140;SDS011;559;48.628;8.924;2022-09-09T10:28:38;63.53;;;60.17;;
1140;SDS011;559;48.628;8.924;2022-09-09T10:31:24;59.53;;;56.73;;
1140;SDS011;559;48.628;8.924;2022-09-09T10:33:56;64.37;;;61.17;;
1140;SDS011;559;48.628;8.924;2022-09-09T10:36:28;63.47;;;59.77;;
1140;SDS011;559;48.628;8.924;2022-09-09T10:38:57;59.20;;;56.17;;
1140;SDS011;559;48.628;8.924;2022-09-09T10:41:40;63.87;;;60.27;;
1140;SDS011;559;48.628;8.924;2022-09-09T10:44:23;58.10;;;55.20;;
1140;SDS011;559;48.628;8.924;2022-09-09T10:46:58;55.17;;;52.57;;
1140;SDS011;559;48.628;8.924;2022-09-09T10:49:45;52.00;;;49.90;;
1140;SDS011;559;48.628;8.924;2022-09-09T10:52:22;53.30;;;50.90;;
1140;SDS011;559;48.628;8.924;2022-09-09T10:54:55;50.87;;;48.87;;
1140;SDS011;559;48.628;8.924;2022-09-09T10:57:25;44.30;;;42.90;;
1140;SDS011;559;48.628;8.924;2022-09-09T10:59:57;42.10;;;40.90;;
1140;SDS011;559;48.628;8.924;2022-09-09T11:02:26;40.37;;;39.00;;
1140;SDS011;559;48.628;8.924;2022-09-09T11:04:54;48.63;;;47.00;;
1140;SDS011;559;48.628;8.924;2022-09-09T11:07:27;53.03;;;50.77;;
1140;SDS011;559;48.628;8.924;2022-09-09T11:09:58;62.23;;;59.20;;
1140;SDS011;559;48.628;8.924;2022-09-09T11:12:27;68.80;;;65.40;;
1140;SDS011;559;48.628;8.924;2022-09-09T11:14:55;69.30;;;65.67;;
1140;SDS011;559;48.628;8.924;2022-09-09T11:17:26;69.17;;;65.77;;
1140;SDS011;559;48.628;8.924;2022-09-09T11:19:57;73.07;;;69.27;;
1140;SDS011;559;48.628;8.924;2022-09-09T11:22:39;75.77;;;71.77;;
1140;SDS011;559;48.628;8.924;2022-09-09T11:25:17;72.70;;;68.50;;
1140;SDS011;559;48.628;8.924;2022-09-09T11:27:54;75.13;;;71.03;;
1140;SDS011;559;48.628;8.924;2022-09-09T11:30:38;80.03;;;75.73;;
1140;SDS011;559;48.628;8.924;2022-09-09T11:33:39;77.13;;;72.90;;
1140;SDS011;559;48.628;8.924;2022-09-09T11:39:14;83.83;;;79.40;;
1140;SDS011;559;48.628;8.924;2022-09-09T11:42:15;75.90;;;71.80;;
1140;SDS011;559;48.628;8.924;2022-09-09T11:44:44;73.63;;;69.43;;
1140;SDS011;559;48.628;8.924;2022-09-09T11:47:16;76.70;;;72.80;;
1140;SDS011;559;48.628;8.924;2022-09-09T11:49:55;67.57;;;64.17;;
1140;SDS011;559;48.628;8.924;2022-09-09T11:52:48;66.60;;;63.40;;
1140;SDS011;559;48.628;8.924;2022-09-09T11:55:28;63.93;;;60.83;;
1140;SDS011;559;48.628;8.924;2022-09-09T11:57:58;65.50;;;62.43;;
1140;SDS011;559;48.628;8.924;2022-09-09T12:00:32;60.90;;;58.10;;
1140;SDS011;559;48.628;8.924;2022-09-09T12:03:00;56.53;;;54.17;;
1140;SDS011;559;48.628;8.924;2022-09-09T12:05:35;55.03;;;52.93;;
1140;SDS011;559;48.628;8.924;2022-09-09T12:08:02;53.90;;;51.80;;
1140;SDS011;559;48.628;8.924;2022-09-09T12:10:31;56.87;;;54.57;;
1140;SDS011;559;48.628;8.924;2022-09-09T12:13:07;59.20;;;56.70;;
1140;SDS011;559;48.628;8.924;2022-09-09T12:15:35;55.90;;;53.70;;
1140;SDS011;559;48.628;8.924;2022-09-09T12:18:14;55.30;;;53.10;;
1140;SDS011;559;48.628;8.924;2022-09-09T12:20:41;55.30;;;52.50;;
1140;SDS011;559;48.628;8.924;2022-09-09T12:23:27;51.60;;;49.80;;
1140;SDS011;559;48.628;8.924;2022-09-09T12:26:05;53.00;;;50.90;;
1140;SDS011;559;48.628;8.924;2022-09-09T12:28:46;53.33;;;51.33;;
1140;SDS011;559;48.628;8.924;2022-09-09T12:31:20;53.53;;;51.40;;
1140;SDS011;559;48.628;8.924;2022-09-09T12:33:50;54.07;;;52.07;;
1140;SDS011;559;48.628;8.924;2022-09-09T12:36:18;51.63;;;49.83;;
1140;SDS011;559;48.628;8.924;2022-09-09T12:38:46;49.40;;;47.80;;
1140;SDS011;559;48.628;8.924;2022-09-09T12:41:21;50.93;;;48.80;;
1140;SDS011;559;48.628;8.924;2022-09-09T12:43:49;46.77;;;45.27;;
1140;SDS011;559;48.628;8.924;2022-09-09T12:46:20;41.83;;;40.70;;
1140;SDS011;559;48.628;8.924;2022-09-09T12:48:51;38.20;;;37.10;;
1140;SDS011;559;48.628;8.924;2022-09-09T12:51:21;34.53;;;33.33;;
1140;SDS011;559;48.628;8.924;2022-09-09T12:53:51;26.33;;;25.63;;
1140;SDS011;559;48.628;8.924;2022-09-09T12:56:18;25.23;;;24.63;;
1140;SDS011;559;48.628;8.924;2022-09-09T12:58:47;20.70;;;19.87;;
1140;SDS011;559;48.628;8.924;2022-09-09T13:01:18;21.53;;;20.83;;
1140;SDS011;559;48.628;8.924;2022-09-09T13:03:47;20.50;;;19.83;;
1140;SDS011;559;48.628;8.924;2022-09-09T13:06:18;25.33;;;24.47;;
1140;SDS011;559;48.628;8.924;2022-09-09T13:08:47;24.10;;;23.30;;
1140;SDS011;559;48.628;8.924;2022-09-09T13:11:14;20.63;;;19.77;;
1140;SDS011;559;48.628;8.924;2022-09-09T13:13:43;18.40;;;17.93;;
1140;SDS011;559;48.628;8.924;2022-09-09T13:16:19;22.87;;;21.53;;
1140;SDS011;559;48.628;8.924;2022-09-09T13:18:47;28.50;;;27.70;;
1140;SDS011;559;48.628;8.924;2022-09-09T13:21:14;36.33;;;35.33;;
1140;SDS011;559;48.628;8.924;2022-09-09T13:23:41;27.50;;;26.70;;
1140;SDS011;559;48.628;8.924;2022-09-09T13:26:19;25.90;;;25.07;;
1140;SDS011;559;48.628;8.924;2022-09-09T13:28:47;19.83;;;19.13;;
1140;SDS011;559;48.628;8.924;2022-09-09T13:31:21;17.13;;;16.43;;
1140;SDS011;559;48.628;8.924;2022-09-09T13:33:48;21.80;;;21.10;;
1140;SDS011;559;48.628;8.924;2022-09-09T13:36:15;17.97;;;17.47;;
1140;SDS011;559;48.628;8.924;2022-09-09T13:38:52;15.87;;;15.37;;
1140;SDS011;559;48.628;8.924;2022-09-09T13:41:20;8.90;;;8.70;;
1140;SDS011;559;48.628;8.924;2022-09-09T13:43:48;10.53;;;9.93;;
1140;SDS011;559;48.628;8.924;2022-09-09T13:46:28;8.20;;;7.63;;
1140;SDS011;559;48.628;8.924;2022-09-09T13:48:57;8.30;;;7.83;;
1140;SDS011;559;48.628;8.924;2022-09-09T13:51:28;8.40;;;7.70;;
1140;SDS011;559;48.628;8.924;2022-09-09T13:53:58;8.10;;;7.70;;
1140;SDS011;559;48.628;8.924;2022-09-09T13:56:25;4.60;;;4.10;;
1140;SDS011;559;48.628;8.924;2022-09-09T13:58:52;3.20;;;3.00;;
1140;SDS011;559;48.628;8.924;2022-09-09T14:01:18;2.80;;;2.50;;
1140;SDS011;559;48.628;8.924;2022-09-09T14:03:46;2.70;;;2.60;;
1140;SDS011;559;48.628;8.924;2022-09-09T14:06:13;2.00;;;1.90;;
1140;SDS011;559;48.628;8.924;2022-09-09T14:08:39;4.07;;;2.20;;
1140;SDS011;559;48.628;8.924;2022-09-09T14:11:07;2.20;;;1.27;;
1140;SDS011;559;48.628;8.924;2022-09-09T14:13:37;1.20;;;0.93;;
1140;SDS011;559;48.628;8.924;2022-09-09T14:16:04;2.67;;;1.43;;
1140;SDS011;559;48.628;8.924;2022-09-09T14:18:30;1.90;;;1.43;;
1140;SDS011;559;48.628;8.924;2022-09-09T14:20:58;1.17;;;1.00;;
1140;SDS011;559;48.628;8.924;2022-09-09T14:23:25;1.50;;;1.40;;
1140;SDS011;559;48.628;8.924;2022-09-09T14:25:51;2.10;;;1.90;;
1140;SDS011;559;48.628;8.924;2022-09-09T14:28:18;1.40;;;1.30;;
1140;SDS011;559;48.628;8.924;2022-09-09T14:30:44;4.73;;;1.17;;
1140;SDS011;559;48.628;8.924;2022-09-09T14:33:12;1.80;;;1.20;;
1140;SDS011;559;48.628;8.924;2022-09-09T14:35:39;1.60;;;0.80;;
1140;SDS011;559;48.628;8.924;2022-09-09T14:38:08;3.33;;;0.83;;
1140;SDS011;559;48.628;8.924;2022-09-09T14:40:34;1.90;;;0.80;;
1140;SDS011;559;48.628;8.924;2022-09-09T14:43:01;1.33;;;0.60;;
1140;SDS011;559;48.628;8.924;2022-09-09T14:45:28;3.00;;;0.90;;
1140;SDS011;559;48.628;8.924;2022-09-09T14:47:55;2.50;;;1.60;;
1140;SDS011;559;48.628;8.924;2022-09-09T14:50:23;1.80;;;1.10;;
1140;SDS011;559;48.628;8.924;2022-09-09T14:52:49;4.97;;;1.30;;
1140;SDS011;559;48.628;8.924;2022-09-09T14:55:17;1.37;;;1.27;;
1140;SDS011;559;48.628;8.924;2022-09-09T14:57:44;10.13;;;2.90;;
1140;SDS011;559;48.628;8.924;2022-09-09T15:00:11;4.03;;;1.20;;
1140;SDS011;559;48.628;8.924;2022-09-09T15:02:38;2.23;;;0.90;;
1140;SDS011;559;48.628;8.924;2022-09-09T15:05:05;0.97;;;0.83;;
1140;SDS011;559;48.628;8.924;2022-09-09T15:07:32;3.00;;;1.23;;
1140;SDS011;559;48.628;8.924;2022-09-09T15:09:59;2.87;;;1.40;;
1140;SDS011;559;48.628;8.924;2022-09-09T15:12:26;2.20;;;0.90;;
1140;SDS011;559;48.628;8.924;2022-09-09T15:14:54;2.20;;;0.80;;
1140;SDS011;559;48.628;8.924;2022-09-09T15:17:20;4.77;;;1.10;;
1140;SDS011;559;48.628;8.924;2022-09-09T15:19:47;2.10;;;0.77;;
1140;SDS011;559;48.628;8.924;2022-09-09T15:22:15;1.30;;;0.50;;
1140;SDS011;559;48.628;8.924;2022-09-09T15:24:41;1.87;;;1.00;;
1140;SDS011;559;48.628;8.924;2022-09-09T15:27:08;1.87;;;0.70;;